Medina, ND (58467)

12:23 AM CDT on July 29, 2015 (GMT -0500)
Jamestown Municipal | | Change Station
CLOSE
Current Station
Airport
Location: Jamestown,
Elevation: 1499 ft
Nearby Weather Stations
Active Advisory: Wind Advisory Active Notice: Public Information Statement

Elev 1499 ft 46.93 °N, 98.67 °W | Updated 27 minutes ago

Mostly Cloudy
Mostly Cloudy
63 °F
Feels Like 63 °F
N
34
Wind Variable Wind from West
Gusts 50 mph

Today
High -- | Low -- °F
--% Chance of Precip.
Yesterday
High -- | Low -- °F
Precip. -- in
6:13 AM 9:13 PM
Waxing Gibbous, 93% visible
Pressure 29.74 in
Visibility 10.0 miles
Clouds Overcast 4100 ft
Dew Point 47 °F
Humidity 56%
Rainfall 0.22 in
Snow Depth Not available.
UV 0 out of 12
Pollen 2.80 out of 12
Air Quality Not available.
Flu Activity Not available.
METAR KJMS 290456Z AUTO 27030G43KT 10SM OVC041 17/08 A2975 RMK AO2 PK WND 26044/0421 SLP069 T01720083

More Conditions Fewer Conditions

Pressure 29.74 in
Visibility 10.0 miles
Clouds Overcast 4100 ft
Dew Point 47 °F
Humidity 56%
Rainfall 0.22 in
Snow Depth Not available.
UV 0 out of 12
Pollen 2.80 out of 12
Air Quality Not available.
Flu Activity Not available.
METAR KJMS 290456Z AUTO 27030G43KT 10SM OVC041 17/08 A2975 RMK AO2 PK WND 26044/0421 SLP069 T01720083

More Conditions Fewer Conditions

10-Day Weather Forecast

×

Almanac

Astronomy

Jul. 29, 2015 Rise Set
Actual Time
Civil Twilight
Nautical Twilight
Astronomical Twilight
Moon
Length of Visible Light
Length of Day
Tomorrow will be .
, % of the Moon is Illuminated

Today's Extremes

State Highs State Lows

Community

WunderPhotos

Upload Photos

1,842,057 photos uploaded!

WunderBlogs® & News

Nearby

Air Quality

  Air Quality AQ Index Pollutant
Not available.

Snow Depth

Station Depth Elevation

Earthquake Activity

City Distance Mag. Time & Date
Minimum magnitude displayed is 2.5.

Coastal Water Temperatures

Place Temperature

Stations

Nearby Weather Stations

Station Location Temp. Windchill Dew Point Humidity Wind Precip. Elev Updated Type
                   
Wind Advisory
Statement as of 10:07 PM CDT on July 28, 2015

... Wind Advisory now in effect until 1 am CDT Wednesday...

* timing... through early Wednesday morning.

* Winds... west winds with gusts to around 45 mph.

* Impacts... travel will be hazardous.

Precautionary/preparedness actions...

A Wind Advisory means that sustained winds of 35 mph are
expected. Winds this strong can make driving difficult...
especially for high profile vehicles. Use extra caution.



NH